createdAt,value
2018-04-29T00:00:26.706Z,14.80
2018-04-29T00:01:29.169Z,14.80
2018-04-29T00:02:31.631Z,14.80
2018-04-29T00:03:34.892Z,14.70
2018-04-29T00:04:37.366Z,14.70
2018-04-29T00:05:39.849Z,14.70
2018-04-29T00:06:42.312Z,14.70
2018-04-29T00:07:44.776Z,14.70
2018-04-29T00:08:48.000Z,14.60
2018-04-29T00:09:51.274Z,14.60
2018-04-29T00:10:53.804Z,14.50
2018-04-29T00:11:56.281Z,14.50
2018-04-29T00:12:58.754Z,14.50
2018-04-29T00:14:01.261Z,14.50
2018-04-29T00:15:04.506Z,14.40
2018-04-29T00:16:07.036Z,14.40
2018-04-29T00:17:09.500Z,14.30
2018-04-29T00:18:12.014Z,14.30
2018-04-29T00:19:14.499Z,14.30
2018-04-29T00:20:17.758Z,14.30
2018-04-29T00:21:20.361Z,14.20
2018-04-29T00:22:23.625Z,14.30
2018-04-29T00:23:26.879Z,14.30
2018-04-29T00:24:29.412Z,14.30
2018-04-29T00:25:31.879Z,14.30
2018-04-29T00:26:34.356Z,14.30
2018-04-29T00:27:36.930Z,14.30
2018-04-29T00:28:39.430Z,14.30
2018-04-29T00:29:41.928Z,14.30
2018-04-29T00:30:44.405Z,14.30
2018-04-29T00:31:46.883Z,14.20
2018-04-29T00:32:49.353Z,14.30
2018-04-29T00:33:51.943Z,14.30
2018-04-29T00:34:54.480Z,14.30
2018-04-29T00:35:56.976Z,14.20
2018-04-29T00:36:59.504Z,14.20
2018-04-29T00:38:01.993Z,14.20
2018-04-29T00:39:04.458Z,14.20
2018-04-29T00:40:06.949Z,14.20
2018-04-29T00:41:09.425Z,14.20
2018-04-29T00:42:11.916Z,14.20
2018-04-29T00:43:15.164Z,14.20
2018-04-29T00:44:18.410Z,14.10
2018-04-29T00:45:21.653Z,14.10
2018-04-29T00:46:24.897Z,14.10
2018-04-29T00:47:27.403Z,14.10
2018-04-29T00:48:29.886Z,14.10
2018-04-29T00:49:32.356Z,14.10
2018-04-29T00:50:35.729Z,14.10
2018-04-29T00:51:50.309Z,14.00
2018-04-29T00:52:53.557Z,14.00
2018-04-29T00:53:56.067Z,14.00
2018-04-29T00:54:59.331Z,14.00
2018-04-29T00:56:01.847Z,14.00
2018-04-29T00:57:05.112Z,13.90
2018-04-29T00:58:07.584Z,13.90
2018-04-29T00:59:10.187Z,13.90
2018-04-29T01:00:12.557Z,13.90
2018-04-29T01:01:15.780Z,13.80
2018-04-29T01:02:18.351Z,13.80
2018-04-29T01:03:20.829Z,13.80
2018-04-29T01:04:23.324Z,13.70
2018-04-29T01:05:25.820Z,13.70
2018-04-29T01:06:28.311Z,13.60
2018-04-29T01:07:30.880Z,13.60
2018-04-29T01:08:33.392Z,13.60
2018-04-29T01:09:35.867Z,13.50
2018-04-29T01:10:38.341Z,13.50
2018-04-29T01:11:40.827Z,13.50
2018-04-29T01:12:43.296Z,13.40
2018-04-29T01:13:45.764Z,13.40
2018-04-29T01:14:48.292Z,13.30
2018-04-29T01:15:50.847Z,13.30
2018-04-29T01:16:54.082Z,13.20
2018-04-29T01:17:56.559Z,13.20
2018-04-29T01:18:59.051Z,13.20
2018-04-29T01:20:02.286Z,13.10
2018-04-29T01:21:05.543Z,13.10
2018-04-29T01:22:08.794Z,13.10
2018-04-29T01:23:11.289Z,13.10
2018-04-29T01:24:14.121Z,13.00
2018-04-29T01:25:16.587Z,13.00
2018-04-29T01:26:19.067Z,13.00
2018-04-29T01:27:21.531Z,13.00
2018-04-29T01:28:23.994Z,13.00
2018-04-29T01:29:26.465Z,12.90
2018-04-29T01:30:29.758Z,12.90
2018-04-29T01:31:32.212Z,12.90
2018-04-29T01:32:35.458Z,12.90
2018-04-29T01:33:38.008Z,12.90
2018-04-29T01:34:40.507Z,12.90
2018-04-29T01:35:43.012Z,12.80
2018-04-29T01:36:45.467Z,12.80
2018-04-29T01:37:48.698Z,12.80
2018-04-29T01:38:51.939Z,12.80
2018-04-29T01:39:54.396Z,12.70
2018-04-29T01:40:56.888Z,12.70
2018-04-29T01:41:59.373Z,12.70
2018-04-29T01:43:01.875Z,12.70
2018-04-29T01:44:04.335Z,12.70
2018-04-29T01:45:06.809Z,12.70
2018-04-29T01:46:09.322Z,12.70
2018-04-29T01:47:12.571Z,12.60
2018-04-29T01:48:15.937Z,12.60
2018-04-29T01:49:18.487Z,12.60
2018-04-29T01:50:20.941Z,12.60
2018-04-29T01:51:23.434Z,12.60
2018-04-29T01:52:25.900Z,12.60
2018-04-29T01:53:28.357Z,12.60
2018-04-29T01:54:30.849Z,12.60
2018-04-29T01:55:33.370Z,12.60
2018-04-29T01:56:35.857Z,12.60
2018-04-29T01:57:38.326Z,12.60
2018-04-29T01:58:40.778Z,12.60
2018-04-29T01:59:43.328Z,12.60
2018-04-29T02:00:45.827Z,12.60
2018-04-29T02:01:49.089Z,12.70
2018-04-29T02:02:51.565Z,12.70
2018-04-29T02:03:54.026Z,12.70
2018-04-29T02:04:56.484Z,12.70
2018-04-29T02:05:59.735Z,12.70
2018-04-29T02:07:02.321Z,12.70
2018-04-29T02:08:04.835Z,12.70
2018-04-29T02:09:08.095Z,12.80
2018-04-29T02:10:10.563Z,12.80
2018-04-29T02:11:13.839Z,12.80
2018-04-29T02:12:17.111Z,12.90
2018-04-29T02:13:19.590Z,12.80
2018-04-29T02:14:22.057Z,12.90
2018-04-29T02:15:24.573Z,12.90
2018-04-29T02:16:27.055Z,12.90
2018-04-29T02:17:29.542Z,12.90
2018-04-29T02:18:32.021Z,12.90
2018-04-29T02:19:35.291Z,12.90
2018-04-29T02:20:38.565Z,12.90
2018-04-29T02:21:41.064Z,12.90
2018-04-29T02:22:43.532Z,12.90
2018-04-29T02:23:45.997Z,12.90
2018-04-29T02:24:49.407Z,12.90
2018-04-29T02:25:51.900Z,12.90
2018-04-29T02:26:54.389Z,12.90
2018-04-29T02:27:57.624Z,12.90
2018-04-29T02:29:00.886Z,12.90
2018-04-29T02:30:04.129Z,12.80
2018-04-29T02:31:06.615Z,12.80
2018-04-29T02:32:09.106Z,12.80
2018-04-29T02:33:11.595Z,12.80
2018-04-29T02:34:14.849Z,12.70
2018-04-29T02:35:17.337Z,12.70
2018-04-29T02:36:19.906Z,12.70
2018-04-29T02:37:22.317Z,12.70
2018-04-29T02:38:24.782Z,12.70
2018-04-29T02:39:27.297Z,12.60
2018-04-29T02:40:29.781Z,12.70
2018-04-29T02:41:32.284Z,12.70
2018-04-29T02:42:34.853Z,12.60
2018-04-29T02:43:37.290Z,12.70
2018-04-29T02:44:39.760Z,12.60
2018-04-29T02:45:42.235Z,12.60
2018-04-29T02:46:44.741Z,12.60
2018-04-29T02:47:47.972Z,12.60
2018-04-29T02:48:51.249Z,12.60
2018-04-29T02:49:53.745Z,12.60
2018-04-29T02:50:56.970Z,12.60
2018-04-29T02:51:59.459Z,12.60
2018-04-29T02:53:01.949Z,12.60
2018-04-29T02:54:04.442Z,12.60
2018-04-29T02:55:06.921Z,12.60
2018-04-29T02:56:09.405Z,12.60
2018-04-29T02:57:12.666Z,12.70
2018-04-29T02:58:15.888Z,12.70
2018-04-29T02:59:19.170Z,12.70
2018-04-29T03:00:21.645Z,12.70
2018-04-29T03:01:24.127Z,12.70
2018-04-29T03:02:26.632Z,12.70
2018-04-29T03:03:29.205Z,12.70
2018-04-29T03:04:31.701Z,12.80
2018-04-29T03:05:34.232Z,12.70
2018-04-29T03:06:36.711Z,12.70
2018-04-29T03:07:39.976Z,12.80
2018-04-29T03:08:42.451Z,12.80
2018-04-29T03:09:44.924Z,12.80
2018-04-29T03:10:47.397Z,12.80
2018-04-29T03:11:49.894Z,12.80
2018-04-29T03:12:52.419Z,12.80
2018-04-29T03:13:54.890Z,12.80
2018-04-29T03:14:58.180Z,12.80
2018-04-29T03:16:00.662Z,12.80
2018-04-29T03:17:03.213Z,12.80
2018-04-29T03:18:05.723Z,12.80
2018-04-29T03:19:08.954Z,12.80
2018-04-29T03:20:12.239Z,12.80
2018-04-29T03:21:14.749Z,12.80
2018-04-29T03:22:18.000Z,12.80
2018-04-29T03:23:20.530Z,12.80
2018-04-29T03:24:22.993Z,12.80
2018-04-29T03:25:25.484Z,12.70
2018-04-29T03:26:27.961Z,12.70
2018-04-29T03:27:30.457Z,12.70
2018-04-29T03:28:32.950Z,12.70
2018-04-29T03:29:35.449Z,12.70
2018-04-29T03:30:37.920Z,12.60
2018-04-29T03:31:40.390Z,12.60
2018-04-29T03:32:42.957Z,12.60
2018-04-29T03:33:45.424Z,12.60
2018-04-29T03:34:47.884Z,12.50
2018-04-29T03:35:51.145Z,12.50
2018-04-29T03:36:54.407Z,12.40
2018-04-29T03:37:56.894Z,12.40
2018-04-29T03:39:00.148Z,12.40
2018-04-29T03:40:02.622Z,12.40
2018-04-29T03:41:05.106Z,12.40
2018-04-29T03:42:08.283Z,12.40
2018-04-29T03:43:10.920Z,12.40
2018-04-29T03:44:13.416Z,12.40
2018-04-29T03:45:15.880Z,12.40
2018-04-29T03:46:18.343Z,12.40
2018-04-29T03:47:21.593Z,12.30
2018-04-29T03:48:24.067Z,12.30
2018-04-29T03:49:26.536Z,12.30
2018-04-29T03:50:29.071Z,12.30
2018-04-29T03:51:31.569Z,12.30
2018-04-29T03:52:34.835Z,12.30
2018-04-29T03:53:37.337Z,12.30
2018-04-29T03:54:40.607Z,12.30
2018-04-29T03:55:43.141Z,12.20
2018-04-29T03:56:45.568Z,12.30
2018-04-29T03:57:59.972Z,12.20
2018-04-29T03:59:14.288Z,12.20
2018-04-29T04:00:28.679Z,12.20
2018-04-29T04:01:51.283Z,12.20
2018-04-29T04:02:57.471Z,12.20
2018-04-29T04:04:03.383Z,12.20
2018-04-29T04:05:05.858Z,12.20
2018-04-29T04:06:08.332Z,12.20
2018-04-29T04:07:10.807Z,12.20
2018-04-29T04:08:13.442Z,12.20
2018-04-29T04:09:15.911Z,12.10
2018-04-29T04:10:18.408Z,12.20
2018-04-29T04:11:20.895Z,12.20
2018-04-29T04:12:24.163Z,12.20
2018-04-29T04:13:26.709Z,12.20
2018-04-29T04:14:29.180Z,12.20
2018-04-29T04:15:32.460Z,12.20
2018-04-29T04:16:34.992Z,12.20
2018-04-29T04:17:37.489Z,12.20
2018-04-29T04:18:41.052Z,12.30
2018-04-29T04:19:44.268Z,12.30
2018-04-29T04:20:47.524Z,12.30
2018-04-29T04:21:50.760Z,12.30
2018-04-29T04:22:54.040Z,12.30
2018-04-29T04:23:56.563Z,12.30
2018-04-29T04:24:59.173Z,12.40
2018-04-29T04:26:02.431Z,12.50
2018-04-29T04:27:04.902Z,12.40
2018-04-29T04:28:07.401Z,12.50
2018-04-29T04:29:09.951Z,12.50
2018-04-29T04:30:12.536Z,12.50
2018-04-29T04:31:15.073Z,12.50
2018-04-29T04:32:17.587Z,12.60
2018-04-29T04:33:20.096Z,12.60
2018-04-29T04:34:22.622Z,12.60
2018-04-29T04:35:25.121Z,12.70
2018-04-29T04:36:27.598Z,12.70
2018-04-29T04:37:30.108Z,12.80
2018-04-29T04:38:32.610Z,12.80
2018-04-29T04:39:35.867Z,12.90
2018-04-29T04:40:38.367Z,12.90
2018-04-29T04:41:40.880Z,12.90
2018-04-29T04:42:43.351Z,12.90
2018-04-29T04:43:45.878Z,13.00
2018-04-29T04:44:48.412Z,13.00
2018-04-29T04:45:50.915Z,13.10
2018-04-29T04:46:54.154Z,13.10
2018-04-29T04:47:57.447Z,13.20
2018-04-29T04:48:59.941Z,13.20
2018-04-29T04:50:02.399Z,13.20
2018-04-29T04:51:04.862Z,13.20
2018-04-29T04:52:08.092Z,13.30
2018-04-29T04:53:10.569Z,13.30
2018-04-29T04:54:13.057Z,13.30
2018-04-29T04:55:17.149Z,13.30
2018-04-29T04:56:19.643Z,13.30
2018-04-29T04:57:23.551Z,13.40
2018-04-29T04:58:26.034Z,13.40
2018-04-29T04:59:29.300Z,13.40
2018-04-29T05:00:31.776Z,13.40
2018-04-29T05:01:34.244Z,13.40
2018-04-29T05:02:37.557Z,13.40
2018-04-29T05:03:40.817Z,13.40
2018-04-29T05:04:43.299Z,13.40
2018-04-29T05:05:45.800Z,13.40
2018-04-29T05:06:48.287Z,13.40
2018-04-29T05:07:51.528Z,13.50
2018-04-29T05:08:54.779Z,13.50
2018-04-29T05:09:57.263Z,13.50
2018-04-29T05:10:59.728Z,13.50
2018-04-29T05:12:02.212Z,13.50
2018-04-29T05:13:04.679Z,13.50
2018-04-29T05:14:07.175Z,13.50
2018-04-29T05:15:09.642Z,13.50
2018-04-29T05:16:12.127Z,13.50
2018-04-29T05:17:14.616Z,13.50
2018-04-29T05:18:17.109Z,13.60
2018-04-29T05:19:19.613Z,13.60
2018-04-29T05:20:22.898Z,13.60
2018-04-29T05:21:25.386Z,13.60
2018-04-29T05:22:28.656Z,13.60
2018-04-29T05:23:31.165Z,13.60
2018-04-29T05:24:33.635Z,13.60
2018-04-29T05:25:36.108Z,13.70
2018-04-29T05:26:38.663Z,13.70
2018-04-29T05:27:41.139Z,13.70
2018-04-29T05:28:44.416Z,13.80
2018-04-29T05:29:46.925Z,13.80
2018-04-29T05:30:50.177Z,13.90
2018-04-29T05:31:52.675Z,13.90
2018-04-29T05:32:55.162Z,14.00
2018-04-29T05:33:57.708Z,14.00
2018-04-29T05:35:00.343Z,14.10
2018-04-29T05:36:02.883Z,14.20
2018-04-29T05:37:05.452Z,14.20
2018-04-29T05:38:07.918Z,14.20
2018-04-29T05:39:10.488Z,14.30
2018-04-29T05:40:12.968Z,14.30
2018-04-29T05:41:16.283Z,14.40
2018-04-29T05:42:18.763Z,14.40
2018-04-29T05:43:21.989Z,14.50
2018-04-29T05:44:24.466Z,14.50
2018-04-29T05:45:26.976Z,14.50
2018-04-29T05:46:29.472Z,14.60
2018-04-29T05:47:31.952Z,14.60
2018-04-29T05:48:34.451Z,14.70
2018-04-29T05:49:36.954Z,14.80
2018-04-29T05:50:40.225Z,14.80
2018-04-29T05:51:42.708Z,14.80
2018-04-29T05:52:45.199Z,14.90
2018-04-29T05:53:47.664Z,15.00
2018-04-29T05:54:50.168Z,15.00
2018-04-29T05:55:52.640Z,15.00
2018-04-29T05:56:56.165Z,15.10
2018-04-29T05:57:59.449Z,15.20
2018-04-29T05:59:01.926Z,15.10
2018-04-29T06:00:04.495Z,15.20
2018-04-29T06:01:06.962Z,15.30
2018-04-29T06:02:09.429Z,15.30
2018-04-29T06:03:12.684Z,15.50
2018-04-29T06:04:15.148Z,15.50
2018-04-29T06:05:17.629Z,15.60
2018-04-29T06:06:20.170Z,15.80
2018-04-29T06:07:22.941Z,15.90
2018-04-29T06:08:25.528Z,16.00
2018-04-29T06:09:28.263Z,16.10
2018-04-29T06:10:30.872Z,16.30
2018-04-29T06:11:33.336Z,16.40
2018-04-29T06:12:35.827Z,16.40
2018-04-29T06:13:39.042Z,16.60
2018-04-29T06:14:42.283Z,16.70
2018-04-29T06:15:44.774Z,16.70
2018-04-29T06:16:47.272Z,16.90
2018-04-29T06:17:49.753Z,16.90
2018-04-29T06:18:52.204Z,17.00
2018-04-29T06:19:54.699Z,17.20
2018-04-29T06:20:57.174Z,17.30
2018-04-29T06:21:59.644Z,17.40
2018-04-29T06:23:02.103Z,17.40
2018-04-29T06:24:04.580Z,17.40
2018-04-29T06:25:07.076Z,17.50
2018-04-29T06:26:09.628Z,17.60
2018-04-29T06:27:12.028Z,17.70
2018-04-29T06:28:14.495Z,17.90
2018-04-29T06:29:16.968Z,18.00
2018-04-29T06:30:19.488Z,18.00
2018-04-29T06:31:21.985Z,18.30
2018-04-29T06:32:24.465Z,18.30
2018-04-29T06:33:26.958Z,18.40
2018-04-29T06:34:29.442Z,18.50
2018-04-29T06:35:31.958Z,18.60
2018-04-29T06:36:35.948Z,18.80
2018-04-29T06:37:39.184Z,19.00
2018-04-29T06:38:42.467Z,18.90
2018-04-29T06:39:45.796Z,18.90
2018-04-29T06:40:48.321Z,18.90
2018-04-29T06:41:50.795Z,19.00
2018-04-29T06:42:53.278Z,18.90
2018-04-29T06:43:55.777Z,18.90
2018-04-29T06:44:59.045Z,18.90
2018-04-29T06:46:01.545Z,18.90
2018-04-29T06:47:04.789Z,19.00
2018-04-29T06:48:08.045Z,18.80
2018-04-29T06:49:10.508Z,18.80
2018-04-29T06:50:12.971Z,18.80
2018-04-29T06:51:16.240Z,18.70
2018-04-29T06:52:18.755Z,18.60
2018-04-29T06:53:21.229Z,18.60
2018-04-29T06:54:23.691Z,18.60
2018-04-29T06:55:26.159Z,18.60
2018-04-29T06:56:28.649Z,18.60
2018-04-29T06:57:31.888Z,18.50
2018-04-29T06:58:35.037Z,18.40
2018-04-29T06:59:38.261Z,18.40
2018-04-29T07:00:41.591Z,18.40
2018-04-29T07:01:44.110Z,18.40
2018-04-29T07:02:46.580Z,18.40
2018-04-29T07:03:49.167Z,18.30
2018-04-29T07:04:51.643Z,18.20
2018-04-29T07:05:54.120Z,18.20
2018-04-29T07:06:57.362Z,18.20
2018-04-29T07:07:59.871Z,18.20
2018-04-29T07:09:02.364Z,18.20
2018-04-29T07:10:04.861Z,18.20
2018-04-29T07:11:08.132Z,18.10
2018-04-29T07:12:11.524Z,18.10
2018-04-29T07:13:13.997Z,18.10
2018-04-29T07:14:16.515Z,18.10
2018-04-29T07:15:19.753Z,18.10
2018-04-29T07:16:23.127Z,18.10
2018-04-29T07:17:26.395Z,18.10
2018-04-29T07:18:29.003Z,18.10
2018-04-29T07:19:31.489Z,18.10
2018-04-29T07:20:34.724Z,18.10
2018-04-29T07:21:37.976Z,18.20
2018-04-29T07:22:41.228Z,18.20
2018-04-29T07:23:43.708Z,18.20
2018-04-29T07:24:46.206Z,18.30
2018-04-29T07:25:48.701Z,18.60
2018-04-29T07:26:51.223Z,18.90
2018-04-29T07:27:54.508Z,19.70
2018-04-29T07:28:57.021Z,19.70
2018-04-29T07:29:59.504Z,20.20
2018-04-29T07:31:02.758Z,21.10
2018-04-29T07:32:05.989Z,21.30
2018-04-29T07:33:09.306Z,21.40
2018-04-29T07:34:11.837Z,21.40
2018-04-29T07:35:15.028Z,21.90
2018-04-29T07:36:17.509Z,21.80
2018-04-29T07:37:19.990Z,21.90
2018-04-29T07:38:22.505Z,21.90
2018-04-29T07:39:25.014Z,21.70
2018-04-29T07:40:27.551Z,21.60
2018-04-29T07:41:30.103Z,21.30
2018-04-29T07:42:32.568Z,21.20
2018-04-29T07:43:35.853Z,21.20
2018-04-29T07:44:38.344Z,21.20
2018-04-29T07:45:41.627Z,21.50
2018-04-29T07:46:44.568Z,21.50
2018-04-29T07:47:47.053Z,21.40
2018-04-29T07:48:50.322Z,21.20
2018-04-29T07:49:52.811Z,21.20
2018-04-29T07:50:56.084Z,21.00
2018-04-29T07:51:58.679Z,21.00
2018-04-29T07:53:01.233Z,20.90
2018-04-29T07:54:03.698Z,20.90
2018-04-29T07:55:06.176Z,20.90
2018-04-29T07:56:08.715Z,20.90
2018-04-29T07:57:11.193Z,21.00
2018-04-29T07:58:14.436Z,21.10
2018-04-29T07:59:16.912Z,21.10
2018-04-29T08:00:19.379Z,21.10
2018-04-29T08:01:21.874Z,21.10
2018-04-29T08:02:24.366Z,21.00
2018-04-29T08:03:27.622Z,21.00
2018-04-29T08:04:30.090Z,21.00
2018-04-29T08:05:32.553Z,21.10
2018-04-29T08:06:35.833Z,20.80
2018-04-29T08:07:38.331Z,20.80
2018-04-29T08:08:41.576Z,20.60
2018-04-29T08:09:44.103Z,20.60
2018-04-29T08:10:46.570Z,20.50
2018-04-29T08:11:49.060Z,20.50
2018-04-29T08:12:51.539Z,20.50
2018-04-29T08:13:54.033Z,20.60
2018-04-29T08:14:56.506Z,20.80
2018-04-29T08:15:59.740Z,21.40
2018-04-29T08:17:02.302Z,21.30
2018-04-29T08:18:04.766Z,21.30
2018-04-29T08:19:07.245Z,21.30
2018-04-29T08:20:09.712Z,21.30
2018-04-29T08:21:12.203Z,21.40
2018-04-29T08:22:14.690Z,21.50
2018-04-29T08:23:17.170Z,21.50
2018-04-29T08:24:19.661Z,21.50
2018-04-29T08:25:22.157Z,21.50
2018-04-29T08:26:24.631Z,21.40
2018-04-29T08:27:27.120Z,21.50
2018-04-29T08:28:30.339Z,21.50
2018-04-29T08:29:32.806Z,21.50
2018-04-29T08:30:35.272Z,21.50
2018-04-29T08:31:37.761Z,21.30
2018-04-29T08:32:40.240Z,21.10
2018-04-29T08:33:42.715Z,21.10
2018-04-29T08:34:45.215Z,21.00
2018-04-29T08:35:48.490Z,21.00
2018-04-29T08:36:50.987Z,21.00
2018-04-29T08:37:54.244Z,21.00
2018-04-29T08:38:57.473Z,21.00
2018-04-29T08:40:00.724Z,20.90
2018-04-29T08:41:03.982Z,20.80
2018-04-29T08:42:06.474Z,20.70
2018-04-29T08:43:09.743Z,20.50
2018-04-29T08:44:12.952Z,20.50
2018-04-29T08:45:15.437Z,20.50
2018-04-29T08:46:17.901Z,20.40
2018-04-29T08:47:20.457Z,20.20
2018-04-29T08:48:22.969Z,20.00
2018-04-29T08:49:26.327Z,19.70
2018-04-29T08:50:28.857Z,19.70
2018-04-29T08:51:32.093Z,19.50
2018-04-29T08:52:35.324Z,19.50
2018-04-29T08:53:38.578Z,19.60
2018-04-29T08:54:41.127Z,19.60
2018-04-29T08:55:43.634Z,19.70
2018-04-29T08:56:46.239Z,19.90
2018-04-29T08:57:48.825Z,20.10
2018-04-29T08:58:51.295Z,20.30
2018-04-29T08:59:54.538Z,20.80
2018-04-29T09:00:57.022Z,20.80
2018-04-29T09:01:59.502Z,21.10
2018-04-29T09:03:02.715Z,21.20
2018-04-29T09:04:06.696Z,21.30
2018-04-29T09:05:09.872Z,21.30
2018-04-29T09:06:12.402Z,21.40
2018-04-29T09:07:14.899Z,21.40
2018-04-29T09:08:17.381Z,21.40
2018-04-29T09:09:20.352Z,21.40
2018-04-29T09:10:23.631Z,21.30
2018-04-29T09:11:26.100Z,21.30
2018-04-29T09:12:28.576Z,21.30
2018-04-29T09:13:31.053Z,21.20
2018-04-29T09:14:34.284Z,21.30
2018-04-29T09:15:36.872Z,21.20
2018-04-29T09:16:39.429Z,21.20
2018-04-29T09:17:41.945Z,21.20
2018-04-29T09:18:44.443Z,21.20
2018-04-29T09:19:46.927Z,21.10
2018-04-29T09:20:49.641Z,21.10
2018-04-29T09:21:52.207Z,21.00
2018-04-29T09:22:55.452Z,20.90
2018-04-29T09:23:57.978Z,20.80
2018-04-29T09:25:00.501Z,20.80
2018-04-29T09:26:02.983Z,20.80
2018-04-29T09:27:05.443Z,20.70
2018-04-29T09:28:08.708Z,20.70
2018-04-29T09:29:11.190Z,20.60
2018-04-29T09:30:13.928Z,20.70
2018-04-29T09:31:17.192Z,20.90
2018-04-29T09:32:19.857Z,20.90
2018-04-29T09:33:22.509Z,20.90
2018-04-29T09:34:25.112Z,20.90
2018-04-29T09:35:28.426Z,21.00
2018-04-29T09:36:30.953Z,20.90
2018-04-29T09:37:33.439Z,21.00
2018-04-29T09:38:35.922Z,20.90
2018-04-29T09:39:38.418Z,21.00
2018-04-29T09:40:40.890Z,21.10
2018-04-29T09:41:43.373Z,21.10
2018-04-29T09:42:45.879Z,21.10
2018-04-29T09:43:49.110Z,21.00
2018-04-29T09:44:51.573Z,21.00
2018-04-29T09:45:54.043Z,21.00
2018-04-29T09:46:56.526Z,21.00
2018-04-29T09:47:59.002Z,21.00
2018-04-29T09:49:01.465Z,21.10
2018-04-29T09:50:03.933Z,21.10
2018-04-29T09:51:06.392Z,21.10
2018-04-29T09:52:09.642Z,21.10
2018-04-29T09:53:12.882Z,21.10
2018-04-29T09:54:16.115Z,21.10
2018-04-29T09:55:19.377Z,21.20
2018-04-29T09:56:21.881Z,21.20
2018-04-29T09:57:24.353Z,21.20
2018-04-29T09:58:26.852Z,21.30
2018-04-29T09:59:29.386Z,21.30
2018-04-29T10:00:32.501Z,21.40
2018-04-29T10:01:35.746Z,21.50
2018-04-29T10:02:44.590Z,21.50
2018-04-29T10:03:47.987Z,21.50
2018-04-29T10:04:50.490Z,21.50
2018-04-29T10:05:52.963Z,21.40
2018-04-29T10:06:55.565Z,21.40
2018-04-29T10:07:58.052Z,21.30
2018-04-29T10:09:00.496Z,21.20
2018-04-29T10:10:03.723Z,21.10
2018-04-29T10:11:06.968Z,21.10
2018-04-29T10:12:10.217Z,21.10
2018-04-29T10:13:13.497Z,21.20
2018-04-29T10:14:15.951Z,21.20
2018-04-29T10:15:18.439Z,21.30
2018-04-29T10:16:20.904Z,21.30
2018-04-29T10:17:23.525Z,21.40
2018-04-29T10:18:26.009Z,21.40
2018-04-29T10:19:28.546Z,21.40
2018-04-29T10:20:31.008Z,21.40
2018-04-29T10:21:33.489Z,21.40
2018-04-29T10:22:35.963Z,21.40
2018-04-29T10:23:38.455Z,21.40
2018-04-29T10:24:40.992Z,21.40
2018-04-29T10:25:43.407Z,21.40
2018-04-29T10:26:45.897Z,21.40
2018-04-29T10:27:48.963Z,21.40
2018-04-29T10:28:51.445Z,21.30
2018-04-29T10:29:53.959Z,21.30
2018-04-29T10:30:57.208Z,21.40
2018-04-29T10:31:59.668Z,21.40
2018-04-29T10:33:02.218Z,21.50
2018-04-29T10:34:05.421Z,21.50
2018-04-29T10:35:08.649Z,21.60
2018-04-29T10:36:11.886Z,21.60
2018-04-29T10:37:15.137Z,21.60
2018-04-29T10:38:18.449Z,21.70
2018-04-29T10:39:20.921Z,21.70
2018-04-29T10:40:23.371Z,21.70
2018-04-29T10:41:25.903Z,21.70
2018-04-29T10:42:28.371Z,21.70
2018-04-29T10:43:30.880Z,21.70
2018-04-29T10:44:33.442Z,21.70
2018-04-29T10:45:35.938Z,21.70
2018-04-29T10:46:38.968Z,21.70
2018-04-29T10:47:41.524Z,21.80
2018-04-29T10:48:44.778Z,22.00
2018-04-29T10:49:48.022Z,22.00
2018-04-29T10:50:50.476Z,22.00
2018-04-29T10:51:52.952Z,22.00
2018-04-29T10:52:56.175Z,22.00
2018-04-29T10:53:58.713Z,22.00
2018-04-29T10:55:01.182Z,22.10
2018-04-29T10:56:03.676Z,22.10
2018-04-29T10:57:06.933Z,22.10
2018-04-29T10:58:10.156Z,22.20
2018-04-29T10:59:13.394Z,22.20
2018-04-29T11:00:16.748Z,22.30
2018-04-29T11:01:19.980Z,22.30
2018-04-29T11:02:23.232Z,22.30
2018-04-29T11:03:26.494Z,22.30
2018-04-29T11:04:28.996Z,22.30
2018-04-29T11:05:32.226Z,22.40
2018-04-29T11:06:34.706Z,22.40
2018-04-29T11:07:37.198Z,22.40
2018-04-29T11:08:40.770Z,22.40
2018-04-29T11:09:43.284Z,22.40
2018-04-29T11:10:45.774Z,22.40
2018-04-29T11:11:48.299Z,22.40
2018-04-29T11:12:50.763Z,22.40
2018-04-29T11:13:53.296Z,22.40
2018-04-29T11:14:55.766Z,22.40
2018-04-29T11:15:59.018Z,22.40
2018-04-29T11:17:01.494Z,22.40
2018-04-29T11:18:03.956Z,22.40
2018-04-29T11:19:06.466Z,22.30
2018-04-29T11:20:08.944Z,22.30
2018-04-29T11:21:12.194Z,22.30
2018-04-29T11:22:14.779Z,22.30
2018-04-29T11:23:17.235Z,22.30
2018-04-29T11:24:20.536Z,22.40
2018-04-29T11:25:23.026Z,22.40
2018-04-29T11:26:25.508Z,22.40
2018-04-29T11:27:27.987Z,22.40
2018-04-29T11:28:30.467Z,22.40
2018-04-29T11:29:33.730Z,22.40
2018-04-29T11:30:36.195Z,22.40
2018-04-29T11:31:38.664Z,22.50
2018-04-29T11:32:41.898Z,22.60
2018-04-29T11:33:45.173Z,22.80
2018-04-29T11:34:48.384Z,22.80
2018-04-29T11:35:51.631Z,22.90
2018-04-29T11:36:54.899Z,22.90
2018-04-29T11:37:57.376Z,22.90
2018-04-29T11:38:59.923Z,22.90
2018-04-29T11:40:03.165Z,22.90
2018-04-29T11:41:06.401Z,22.90
2018-04-29T11:42:09.664Z,22.80
2018-04-29T11:43:12.886Z,22.80
2018-04-29T11:44:15.652Z,22.80
2018-04-29T11:45:18.173Z,22.80
2018-04-29T11:46:20.691Z,22.90
2018-04-29T11:47:23.157Z,22.90
2018-04-29T11:48:25.641Z,22.90
2018-04-29T11:49:28.174Z,22.90
2018-04-29T11:50:30.703Z,22.90
2018-04-29T11:51:33.221Z,23.00
2018-04-29T11:52:35.804Z,23.00
2018-04-29T11:53:38.283Z,23.00
2018-04-29T11:54:40.771Z,23.00
2018-04-29T11:55:43.254Z,22.90
2018-04-29T11:56:45.711Z,23.00
2018-04-29T11:57:48.177Z,23.00
2018-04-29T11:58:50.651Z,23.10
2018-04-29T11:59:53.925Z,23.10
2018-04-29T12:00:57.311Z,23.10
2018-04-29T12:01:59.808Z,23.10
2018-04-29T12:03:02.249Z,23.00
2018-04-29T12:04:04.708Z,22.90
2018-04-29T12:05:07.242Z,22.80
2018-04-29T12:06:09.740Z,22.70
2018-04-29T12:07:12.196Z,22.80
2018-04-29T12:08:14.670Z,22.80
2018-04-29T12:09:17.313Z,22.80
2018-04-29T12:10:19.792Z,22.80
2018-04-29T12:11:23.028Z,22.70
2018-04-29T12:12:26.260Z,22.80
2018-04-29T12:13:28.724Z,22.70
2018-04-29T12:14:31.268Z,22.70
2018-04-29T12:15:33.744Z,22.80
2018-04-29T12:16:36.210Z,22.80
2018-04-29T12:17:38.680Z,22.90
2018-04-29T12:18:41.153Z,22.90
2018-04-29T12:19:43.653Z,22.90
2018-04-29T12:20:46.948Z,23.00
2018-04-29T12:21:49.432Z,22.90
2018-04-29T12:22:52.672Z,23.10
2018-04-29T12:23:55.925Z,23.10
2018-04-29T12:24:58.412Z,23.10
2018-04-29T12:26:00.886Z,23.10
2018-04-29T12:27:03.366Z,23.20
2018-04-29T12:28:05.886Z,23.20
2018-04-29T12:29:08.350Z,23.20
2018-04-29T12:30:10.836Z,23.20
2018-04-29T12:31:13.327Z,23.20
2018-04-29T12:32:15.825Z,23.10
2018-04-29T12:33:18.308Z,23.10
2018-04-29T12:34:20.773Z,23.20
2018-04-29T12:35:23.286Z,23.20
2018-04-29T12:36:26.548Z,23.10
2018-04-29T12:37:29.028Z,23.10
2018-04-29T12:38:31.603Z,23.10
2018-04-29T12:39:34.532Z,23.10
2018-04-29T12:40:37.077Z,23.10
2018-04-29T12:41:39.562Z,23.10
2018-04-29T12:42:42.840Z,23.20
2018-04-29T12:43:45.304Z,23.10
2018-04-29T12:44:47.872Z,23.20
2018-04-29T12:45:50.464Z,23.20
2018-04-29T12:46:52.944Z,23.30
2018-04-29T12:47:55.470Z,23.40
2018-04-29T12:48:57.979Z,23.30
2018-04-29T12:50:00.478Z,23.40
2018-04-29T12:51:02.945Z,23.40
2018-04-29T12:52:05.424Z,23.40
2018-04-29T12:53:07.890Z,23.40
2018-04-29T12:54:10.455Z,23.40
2018-04-29T12:55:12.932Z,23.40
2018-04-29T12:56:15.405Z,23.40
2018-04-29T12:57:17.982Z,23.40
2018-04-29T12:58:20.459Z,23.50
2018-04-29T12:59:22.931Z,23.50
2018-04-29T13:00:25.522Z,23.40
2018-04-29T13:01:28.691Z,23.50
2018-04-29T13:02:31.176Z,23.40
2018-04-29T13:03:33.648Z,23.50
2018-04-29T13:04:36.125Z,23.40
2018-04-29T13:05:38.674Z,23.40
2018-04-29T13:06:41.068Z,23.30
2018-04-29T13:07:43.558Z,23.30
2018-04-29T13:08:46.036Z,23.30
2018-04-29T13:09:48.602Z,23.30
2018-04-29T13:10:51.088Z,23.40
2018-04-29T13:11:54.152Z,23.40
2018-04-29T13:12:56.620Z,23.40
2018-04-29T13:13:59.112Z,23.40
2018-04-29T13:15:01.575Z,23.40
2018-04-29T13:16:04.110Z,23.40
2018-04-29T13:17:06.625Z,23.50
2018-04-29T13:18:09.212Z,23.50
2018-04-29T13:19:12.463Z,23.60
2018-04-29T13:20:14.942Z,23.60
2018-04-29T13:21:17.508Z,23.60
2018-04-29T13:22:19.991Z,23.60
2018-04-29T13:23:22.466Z,23.60
2018-04-29T13:24:24.977Z,23.60
2018-04-29T13:25:28.229Z,23.50
2018-04-29T13:26:30.733Z,23.50
2018-04-29T13:27:33.986Z,23.60
2018-04-29T13:28:37.212Z,23.60